createdAt,value
2023-12-09T00:04:24.188Z,23.27
2023-12-09T00:14:29.282Z,23.24
2023-12-09T00:24:34.565Z,23.27
2023-12-09T00:34:40.180Z,23.25
2023-12-09T00:44:45.892Z,23.24
2023-12-09T00:54:51.348Z,23.23
2023-12-09T01:04:56.822Z,23.20
2023-12-09T01:15:01.704Z,23.17
2023-12-09T01:25:07.084Z,23.17
2023-12-09T01:35:12.282Z,23.18
2023-12-09T01:45:17.727Z,23.17
2023-12-09T01:55:22.998Z,23.16
2023-12-09T02:05:28.234Z,23.14
2023-12-09T02:15:33.773Z,23.11
2023-12-09T02:25:39.470Z,23.12
2023-12-09T02:35:44.840Z,23.11
2023-12-09T02:45:50.130Z,23.10
2023-12-09T02:55:55.226Z,23.11
2023-12-09T03:06:00.464Z,23.07
2023-12-09T03:16:05.622Z,23.11
2023-12-09T03:26:10.707Z,23.13
2023-12-09T03:36:16.129Z,23.13
2023-12-09T03:46:21.159Z,23.12
2023-12-09T03:56:26.603Z,23.04
2023-12-09T04:06:31.762Z,23.04
2023-12-09T04:16:36.794Z,23.02
2023-12-09T04:26:42.295Z,23.09
2023-12-09T04:36:47.566Z,23.10
2023-12-09T04:46:52.688Z,23.09
2023-12-09T04:56:58.089Z,23.08
2023-12-09T05:07:03.734Z,23.05
2023-12-09T05:17:08.926Z,23.06
2023-12-09T05:27:14.220Z,23.06
2023-12-09T05:37:19.499Z,22.99
2023-12-09T05:47:24.979Z,23.00
2023-12-09T05:57:30.457Z,23.05
2023-12-09T06:07:35.969Z,23.07
2023-12-09T06:17:41.427Z,23.05
2023-12-09T06:27:46.721Z,23.00
2023-12-09T06:37:52.204Z,23.06
2023-12-09T06:47:57.482Z,23.05
2023-12-09T06:58:02.992Z,23.00
2023-12-09T07:08:07.805Z,22.99
2023-12-09T07:18:13.740Z,22.96
2023-12-09T07:28:20.208Z,23.05
2023-12-09T07:38:25.684Z,23.05
2023-12-09T07:48:31.207Z,23.02
2023-12-09T07:58:36.652Z,23.00
2023-12-09T08:08:42.280Z,22.97
2023-12-09T08:18:48.061Z,23.13
2023-12-09T08:28:53.618Z,23.24
2023-12-09T08:38:58.752Z,23.34
2023-12-09T08:50:25.550Z,23.41
2023-12-09T09:00:30.880Z,23.47
2023-12-09T09:10:36.184Z,23.51
2023-12-09T09:20:41.531Z,23.52
2023-12-09T09:30:46.933Z,23.60
2023-12-09T09:40:52.329Z,23.66
2023-12-09T09:50:57.653Z,23.59
2023-12-09T10:01:03.232Z,23.68
2023-12-09T10:11:08.468Z,23.62
2023-12-09T10:21:13.730Z,23.68
2023-12-09T10:31:19.044Z,23.74
2023-12-09T10:41:24.253Z,23.71
2023-12-09T10:51:29.553Z,23.59
2023-12-09T11:01:35.080Z,23.46
2023-12-09T11:11:40.472Z,23.42
2023-12-09T11:21:45.544Z,23.34
2023-12-09T11:31:51.621Z,23.35
2023-12-09T11:41:57.105Z,23.30
2023-12-09T11:52:02.524Z,23.30
2023-12-09T12:02:07.646Z,23.29
2023-12-09T12:12:13.207Z,23.24
2023-12-09T12:22:18.526Z,23.20
2023-12-09T12:32:23.818Z,23.24
2023-12-09T12:42:29.496Z,23.23
2023-12-09T12:52:35.438Z,23.21
2023-12-09T13:02:40.914Z,23.20
2023-12-09T13:12:46.070Z,23.18
2023-12-09T13:22:51.841Z,23.18
2023-12-09T13:32:57.255Z,23.16
2023-12-09T13:43:02.583Z,23.15
2023-12-09T13:53:08.202Z,23.14
2023-12-09T14:03:13.611Z,23.11
2023-12-09T14:13:19.081Z,23.11
2023-12-09T14:23:24.780Z,23.06
2023-12-09T14:33:30.421Z,23.09
2023-12-09T14:43:35.739Z,23.08
2023-12-09T14:53:41.167Z,23.06
2023-12-09T15:03:46.560Z,23.02
2023-12-09T15:13:52.299Z,23.01
2023-12-09T15:23:57.972Z,23.02
2023-12-09T15:34:03.564Z,23.04
2023-12-09T15:44:08.973Z,23.10
2023-12-09T15:54:15.738Z,23.20
2023-12-09T16:04:21.134Z,23.33
2023-12-09T16:14:26.042Z,23.29
2023-12-09T16:24:31.732Z,23.44
2023-12-09T16:34:37.174Z,23.37
2023-12-09T16:44:42.349Z,23.38
2023-12-09T16:54:47.791Z,23.41
2023-12-09T17:04:53.189Z,23.44
2023-12-09T17:14:58.629Z,23.40
2023-12-09T17:25:04.251Z,23.49
2023-12-09T17:35:10.029Z,23.51
2023-12-09T17:45:15.440Z,23.58
2023-12-09T17:55:20.816Z,23.49
2023-12-09T18:05:25.967Z,23.45
2023-12-09T18:15:31.341Z,23.44
2023-12-09T18:25:37.248Z,23.40
2023-12-09T18:35:42.899Z,23.40
2023-12-09T18:45:48.507Z,23.38
2023-12-09T18:55:54.075Z,23.37
2023-12-09T19:05:59.416Z,23.35
2023-12-09T19:16:04.630Z,23.35
2023-12-09T19:26:09.939Z,23.37
2023-12-09T19:36:15.190Z,23.38
2023-12-09T19:46:20.744Z,23.39
2023-12-09T19:56:26.203Z,23.39
2023-12-09T20:06:31.488Z,23.37
2023-12-09T20:16:37.460Z,23.40
2023-12-09T20:26:42.822Z,23.36
2023-12-09T20:36:48.392Z,23.37
2023-12-09T20:46:53.525Z,23.36
2023-12-09T20:56:59.185Z,23.35
2023-12-09T21:07:04.714Z,23.37
2023-12-09T21:17:10.212Z,23.39
2023-12-09T21:27:15.574Z,23.42
2023-12-09T21:37:20.951Z,23.38
2023-12-09T21:47:26.283Z,23.40
2023-12-09T21:57:31.528Z,23.38
2023-12-09T22:07:36.936Z,23.45
2023-12-09T22:17:42.212Z,23.43
2023-12-09T22:27:47.414Z,23.40
2023-12-09T22:37:52.749Z,23.37
2023-12-09T22:47:58.366Z,23.33
2023-12-09T22:58:04.231Z,23.32
2023-12-09T23:08:09.718Z,23.33
2023-12-09T23:18:15.313Z,23.29
2023-12-09T23:28:21.166Z,23.27
2023-12-09T23:38:26.847Z,23.30
2023-12-09T23:48:32.589Z,23.29
2023-12-09T23:58:38.088Z,23.31
